createdAt,value
2023-05-16T00:01:01.326Z,99815.25
2023-05-16T00:03:27.994Z,99804.97
2023-05-16T00:05:54.500Z,99802.69
2023-05-16T00:08:21.009Z,99809.19
2023-05-16T00:10:47.530Z,99814.00
2023-05-16T00:13:13.999Z,99815.16
2023-05-16T00:15:40.503Z,99820.91
2023-05-16T00:18:07.239Z,99820.28
2023-05-16T00:20:34.665Z,99819.66
2023-05-16T00:23:01.380Z,99835.78
2023-05-16T00:25:28.825Z,99833.44
2023-05-16T00:27:55.483Z,99836.44
2023-05-16T00:30:22.722Z,99829.91
2023-05-16T00:32:49.685Z,99834.78
2023-05-16T00:35:16.263Z,99836.06
2023-05-16T00:37:42.766Z,99838.31
2023-05-16T00:43:32.973Z,99838.88
2023-05-16T00:46:00.530Z,99832.97
2023-05-16T00:48:27.132Z,99841.97
2023-05-16T00:50:53.894Z,99845.56
2023-05-16T00:53:21.196Z,99837.00
2023-05-16T00:55:48.145Z,99846.00
2023-05-16T00:58:16.190Z,99840.91
2023-05-16T01:00:43.002Z,99845.38
2023-05-16T01:03:09.604Z,99847.16
2023-05-16T01:05:36.433Z,99846.19
2023-05-16T01:08:03.008Z,99848.75
2023-05-16T01:10:40.535Z,99842.84
2023-05-16T01:13:13.581Z,99837.53
2023-05-16T01:15:45.434Z,99847.16
2023-05-16T01:18:25.653Z,99850.53
2023-05-16T01:21:04.150Z,99855.97
2023-05-16T01:23:43.559Z,99861.38
2023-05-16T01:26:18.677Z,99854.47
2023-05-16T01:28:46.930Z,99857.97
2023-05-16T01:31:13.846Z,99863.25
2023-05-16T01:33:40.792Z,99859.78
2023-05-16T01:36:11.131Z,99858.16
2023-05-16T01:38:44.723Z,99862.63
2023-05-16T01:41:17.277Z,99867.06
2023-05-16T01:43:46.983Z,99862.00
2023-05-16T01:46:16.551Z,99865.59
2023-05-16T01:49:02.009Z,99873.97
2023-05-16T01:51:33.298Z,99877.44
2023-05-16T01:54:05.371Z,99880.22
2023-05-16T01:56:33.743Z,99879.56
2023-05-16T01:59:02.276Z,99870.91
2023-05-16T02:01:30.695Z,99887.84
2023-05-16T02:03:58.332Z,99888.75
2023-05-16T02:06:25.928Z,99889.72
2023-05-16T02:08:52.627Z,99887.06
2023-05-16T02:11:19.123Z,99879.38
2023-05-16T02:13:45.815Z,99885.69
2023-05-16T02:16:12.327Z,99885.91
2023-05-16T02:18:39.138Z,99895.84
2023-05-16T02:21:05.855Z,99894.34
2023-05-16T02:23:32.962Z,99892.75
2023-05-16T02:25:59.432Z,99883.25
2023-05-16T02:28:26.022Z,99882.72
2023-05-16T02:30:59.607Z,99885.84
2023-05-16T02:33:27.632Z,99885.19
2023-05-16T02:35:54.941Z,99893.34
2023-05-16T02:38:21.931Z,99888.44
2023-05-16T02:40:49.171Z,99895.75
2023-05-16T02:43:15.734Z,99891.50
2023-05-16T02:45:42.368Z,99899.63
2023-05-16T02:48:09.081Z,99904.19
2023-05-16T02:50:36.145Z,99909.66
2023-05-16T02:53:02.674Z,99914.19
2023-05-16T02:55:29.529Z,99920.63
2023-05-16T02:57:56.014Z,99910.28
2023-05-16T03:00:23.047Z,99917.53
2023-05-16T03:02:49.679Z,99918.69
2023-05-16T03:05:17.228Z,99928.59
2023-05-16T03:07:43.722Z,99920.13
2023-05-16T03:10:10.524Z,99929.28
2023-05-16T03:12:36.967Z,99923.56
2023-05-16T03:15:04.160Z,99922.16
2023-05-16T03:17:30.768Z,99926.97
2023-05-16T03:19:57.379Z,99936.25
2023-05-16T03:22:23.890Z,99936.63
2023-05-16T03:24:50.606Z,99933.59
2023-05-16T03:27:17.207Z,99938.50
2023-05-16T03:29:43.718Z,99946.81
2023-05-16T03:32:11.718Z,99948.13
2023-05-16T03:34:38.330Z,99943.22
2023-05-16T03:37:04.885Z,99955.72
2023-05-16T03:39:31.373Z,99951.69
2023-05-16T03:41:57.952Z,99962.41
2023-05-16T03:44:24.650Z,99960.97
2023-05-16T03:46:51.553Z,99963.03
2023-05-16T03:49:18.485Z,99963.28
2023-05-16T03:51:48.499Z,99969.81
2023-05-16T03:54:15.194Z,99967.44
2023-05-16T03:56:41.701Z,99967.69
2023-05-16T03:59:08.245Z,99974.94
2023-05-16T04:01:34.860Z,99978.69
2023-05-16T04:04:01.356Z,99980.66
2023-05-16T04:06:27.923Z,99981.78
2023-05-16T04:08:54.469Z,99987.22
2023-05-16T04:11:21.948Z,99990.00
2023-05-16T04:13:48.581Z,99987.56
2023-05-16T04:16:15.250Z,99993.97
2023-05-16T04:18:41.900Z,99991.50
2023-05-16T04:21:10.782Z,100001.38
2023-05-16T04:23:37.343Z,100004.09
2023-05-16T04:26:04.717Z,100003.41
2023-05-16T04:28:31.319Z,100005.28
2023-05-16T04:30:57.887Z,100003.56
2023-05-16T04:33:24.442Z,100012.31
2023-05-16T04:35:53.046Z,100009.69
2023-05-16T04:38:19.530Z,100011.41
2023-05-16T04:40:46.201Z,100012.22
2023-05-16T04:43:12.871Z,100016.59
2023-05-16T04:45:39.428Z,100014.88
2023-05-16T04:48:06.386Z,100020.13
2023-05-16T04:50:33.108Z,100017.50
2023-05-16T04:52:59.790Z,100015.72
2023-05-16T04:55:26.696Z,100025.31
2023-05-16T04:57:53.586Z,100029.66
2023-05-16T05:00:20.591Z,100030.53
2023-05-16T05:02:47.271Z,100034.03
2023-05-16T05:05:13.843Z,100032.28
2023-05-16T05:07:40.979Z,100029.78
2023-05-16T05:10:08.739Z,100035.13
2023-05-16T05:12:35.917Z,100041.31
2023-05-16T05:15:02.751Z,100042.16
2023-05-16T05:17:29.870Z,100055.25
2023-05-16T05:19:56.432Z,100054.31
2023-05-16T05:22:22.993Z,100054.25
2023-05-16T05:24:49.480Z,100057.72
2023-05-16T05:27:16.036Z,100052.28
2023-05-16T05:29:42.554Z,100050.50
2023-05-16T05:32:09.201Z,100056.53
2023-05-16T05:34:35.939Z,100058.06
2023-05-16T05:37:02.445Z,100065.78
2023-05-16T05:39:28.968Z,100066.47
2023-05-16T05:41:55.596Z,100071.56
2023-05-16T05:44:22.170Z,100070.56
2023-05-16T05:46:48.945Z,100067.84
2023-05-16T05:49:16.066Z,100079.03
2023-05-16T05:51:42.701Z,100074.56
2023-05-16T05:54:10.536Z,100074.47
2023-05-16T05:56:37.173Z,100075.13
2023-05-16T05:59:03.724Z,100083.81
2023-05-16T06:01:30.224Z,100088.06
2023-05-16T06:03:57.960Z,100094.88
2023-05-16T06:06:25.019Z,100093.84
2023-05-16T06:08:51.514Z,100091.88
2023-05-16T06:11:18.777Z,100098.75
2023-05-16T06:13:45.406Z,100094.94
2023-05-16T06:16:11.975Z,100092.03
2023-05-16T06:18:38.503Z,100094.41
2023-05-16T06:21:06.349Z,100104.78
2023-05-16T06:23:33.372Z,100108.91
2023-05-16T06:26:00.258Z,100103.50
2023-05-16T06:28:26.772Z,100105.97
2023-05-16T06:30:53.288Z,100119.00
2023-05-16T06:33:19.919Z,100118.81
2023-05-16T06:35:48.097Z,100116.84
2023-05-16T06:38:15.572Z,100113.19
2023-05-16T06:40:42.134Z,100115.56
2023-05-16T06:43:08.710Z,100115.28
2023-05-16T06:45:35.576Z,100128.13
2023-05-16T06:48:02.301Z,100124.16
2023-05-16T06:50:28.874Z,100120.16
2023-05-16T06:52:55.590Z,100115.91
2023-05-16T06:55:22.203Z,100119.69
2023-05-16T06:57:48.809Z,100121.66
2023-05-16T07:00:15.898Z,100124.69
2023-05-16T07:02:44.826Z,100125.28
2023-05-16T07:05:11.551Z,100123.19
2023-05-16T07:07:38.143Z,100120.25
2023-05-16T07:10:05.038Z,100123.47
2023-05-16T07:12:31.589Z,100123.19
2023-05-16T07:14:58.230Z,100115.81
2023-05-16T07:17:24.999Z,100120.72
2023-05-16T07:19:51.581Z,100126.47
2023-05-16T07:22:18.066Z,100132.16
2023-05-16T07:24:44.592Z,100126.56
2023-05-16T07:27:11.218Z,100135.06
2023-05-16T07:29:38.420Z,100131.47
2023-05-16T07:32:05.438Z,100130.53
2023-05-16T07:34:32.077Z,100137.50
2023-05-16T07:37:00.499Z,100146.41
2023-05-16T07:39:27.061Z,100137.59
2023-05-16T07:41:54.638Z,100141.09
2023-05-16T07:44:21.262Z,100144.41
2023-05-16T07:46:47.830Z,100137.88
2023-05-16T07:49:14.350Z,100143.31
2023-05-16T07:51:41.165Z,100146.09
2023-05-16T07:54:07.728Z,100138.41
2023-05-16T07:56:34.839Z,100149.16
2023-05-16T07:59:01.609Z,100152.78
2023-05-16T08:01:28.230Z,100152.19
2023-05-16T08:03:55.111Z,100149.88
2023-05-16T08:06:21.752Z,100155.78
2023-05-16T08:08:48.351Z,100164.50
2023-05-16T08:11:15.408Z,100155.69
2023-05-16T08:13:42.211Z,100150.50
2023-05-16T08:16:08.816Z,100151.25
2023-05-16T08:18:35.522Z,100151.88
2023-05-16T08:21:02.364Z,100149.78
2023-05-16T08:23:28.884Z,100153.72
2023-05-16T08:25:55.466Z,100143.47
2023-05-16T08:28:22.118Z,100143.03
2023-05-16T08:30:48.803Z,100146.22
2023-05-16T08:33:16.182Z,100142.53
2023-05-16T08:35:44.229Z,100145.81
2023-05-16T08:38:11.151Z,100155.13
2023-05-16T08:40:37.960Z,100145.69
2023-05-16T08:43:05.245Z,100143.03
2023-05-16T08:45:32.076Z,100145.75
2023-05-16T08:48:01.376Z,100140.03
2023-05-16T08:50:35.724Z,100139.69
2023-05-16T08:53:07.256Z,100144.06
2023-05-16T08:55:35.844Z,100148.50
2023-05-16T08:58:03.667Z,100141.41
2023-05-16T09:00:31.848Z,100135.84
2023-05-16T09:02:59.171Z,100143.28
2023-05-16T09:05:26.332Z,100139.84
2023-05-16T09:07:53.050Z,100136.28
2023-05-16T09:10:20.011Z,100142.31
2023-05-16T09:12:46.752Z,100138.03
2023-05-16T09:15:13.526Z,100142.66
2023-05-16T09:17:43.654Z,100138.69
2023-05-16T09:20:11.166Z,100143.53
2023-05-16T09:22:38.498Z,100138.72
2023-05-16T09:25:06.962Z,100141.66
2023-05-16T09:27:35.388Z,100147.88
2023-05-16T09:30:02.282Z,100138.81
2023-05-16T09:32:28.909Z,100144.78
2023-05-16T09:34:58.607Z,100142.97
2023-05-16T09:37:25.386Z,100133.56
2023-05-16T09:39:57.288Z,100138.63
2023-05-16T09:42:25.713Z,100138.63
2023-05-16T09:44:55.019Z,100141.28
2023-05-16T09:47:22.393Z,100144.69
2023-05-16T09:49:53.345Z,100148.22
2023-05-16T09:52:20.153Z,100138.91
2023-05-16T09:54:50.584Z,100141.31
2023-05-16T09:57:23.710Z,100143.03
2023-05-16T09:59:50.366Z,100140.97
2023-05-16T10:02:17.438Z,100149.81
2023-05-16T10:04:44.194Z,100148.09
2023-05-16T10:07:11.133Z,100133.84
2023-05-16T10:09:40.716Z,100138.06
2023-05-16T10:12:08.744Z,100130.56
2023-05-16T10:14:37.656Z,100131.78
2023-05-16T10:17:06.611Z,100134.53
2023-05-16T10:19:40.250Z,100125.78
2023-05-16T10:22:07.396Z,100146.09
2023-05-16T10:24:48.436Z,100142.84
2023-05-16T10:27:17.379Z,100139.16
2023-05-16T10:29:54.289Z,100142.19
2023-05-16T10:32:24.898Z,100135.03
2023-05-16T10:34:52.598Z,100131.53
2023-05-16T10:37:19.371Z,100135.16
2023-05-16T10:39:46.645Z,100126.66
2023-05-16T10:42:18.210Z,100117.53
2023-05-16T10:44:51.635Z,100122.66
2023-05-16T10:47:25.104Z,100112.63
2023-05-16T10:49:51.750Z,100122.97
2023-05-16T10:52:18.335Z,100123.81
2023-05-16T10:54:53.510Z,100121.47
2023-05-16T10:57:23.984Z,100121.94
2023-05-16T10:59:52.124Z,100133.38
2023-05-16T11:02:28.679Z,100116.38
2023-05-16T11:04:59.883Z,100120.63
2023-05-16T11:07:32.638Z,100119.09
2023-05-16T11:10:08.174Z,100123.81
2023-05-16T11:12:43.161Z,100122.81
2023-05-16T11:15:23.612Z,100120.44
2023-05-16T11:17:50.952Z,100121.53
2023-05-16T11:20:30.369Z,100116.38
2023-05-16T11:23:17.023Z,100118.91
2023-05-16T11:25:46.140Z,100118.38
2023-05-16T11:28:14.514Z,100127.72
2023-05-16T11:30:46.384Z,100118.00
2023-05-16T11:33:13.487Z,100118.13
2023-05-16T11:35:40.250Z,100124.31
2023-05-16T11:38:06.832Z,100122.53
2023-05-16T11:40:34.601Z,100126.81
2023-05-16T11:43:06.508Z,100133.22
2023-05-16T11:45:34.418Z,100139.88
2023-05-16T11:48:04.724Z,100134.72
2023-05-16T11:50:31.715Z,100139.88
2023-05-16T11:52:58.458Z,100132.44
2023-05-16T11:55:41.806Z,100135.09
2023-05-16T11:58:09.525Z,100140.13
2023-05-16T12:00:36.515Z,100143.06
2023-05-16T12:03:05.053Z,100154.91
2023-05-16T12:05:34.062Z,100143.00
2023-05-16T12:08:02.661Z,100136.25
2023-05-16T12:10:34.053Z,100136.72
2023-05-16T12:13:01.384Z,100138.38
2023-05-16T12:15:28.668Z,100139.97
2023-05-16T12:17:55.918Z,100144.28
2023-05-16T12:20:22.665Z,100136.84
2023-05-16T12:22:49.217Z,100136.66
2023-05-16T12:25:23.376Z,100143.91
2023-05-16T12:27:50.638Z,100147.88
2023-05-16T12:30:18.766Z,100148.88
2023-05-16T12:32:45.548Z,100149.84
2023-05-16T12:35:13.196Z,100157.19
2023-05-16T12:37:39.849Z,100151.59
2023-05-16T12:40:09.737Z,100158.81
2023-05-16T12:45:19.694Z,100146.41
2023-05-16T12:47:47.250Z,100143.91
2023-05-16T12:50:16.331Z,100143.41
2023-05-16T12:52:54.084Z,100146.91
2023-05-16T12:55:22.214Z,100158.25
2023-05-16T12:57:50.041Z,100167.06
2023-05-16T13:00:19.495Z,100169.00
2023-05-16T13:02:47.578Z,100165.16
2023-05-16T13:05:14.420Z,100167.59
2023-05-16T13:07:41.301Z,100174.28
2023-05-16T13:10:12.320Z,100168.91
2023-05-16T13:12:40.121Z,100170.44
2023-05-16T13:15:08.040Z,100164.56
2023-05-16T13:17:35.454Z,100167.00
2023-05-16T13:20:04.913Z,100163.16
2023-05-16T13:22:31.476Z,100165.50
2023-05-16T13:24:58.065Z,100170.81
2023-05-16T13:27:24.550Z,100176.03
2023-05-16T13:29:51.134Z,100166.75
2023-05-16T13:32:18.894Z,100174.28
2023-05-16T13:34:45.433Z,100172.78
2023-05-16T13:37:11.991Z,100173.00
2023-05-16T13:39:38.617Z,100184.00
2023-05-16T13:42:05.612Z,100178.13
2023-05-16T13:44:32.185Z,100177.69
2023-05-16T13:46:58.926Z,100161.31
2023-05-16T13:49:25.669Z,100168.34
2023-05-16T13:51:52.713Z,100166.50
2023-05-16T13:54:19.950Z,100163.56
2023-05-16T13:56:46.802Z,100171.63
2023-05-16T13:59:18.064Z,100170.06
2023-05-16T14:01:50.868Z,100166.91
2023-05-16T14:04:17.605Z,100176.69
2023-05-16T14:06:44.280Z,100180.63
2023-05-16T14:09:10.970Z,100182.66
2023-05-16T14:11:37.434Z,100179.09
2023-05-16T14:14:04.081Z,100183.22
2023-05-16T14:16:31.189Z,100168.81
2023-05-16T14:18:57.834Z,100185.88
2023-05-16T14:21:24.544Z,100183.66
2023-05-16T14:23:51.322Z,100174.81
2023-05-16T14:26:22.470Z,100175.56
2023-05-16T14:28:49.129Z,100182.22
2023-05-16T14:31:15.594Z,100178.69
2023-05-16T14:33:43.141Z,100184.75
2023-05-16T14:36:09.900Z,100184.56
2023-05-16T14:38:36.671Z,100178.41
2023-05-16T14:41:03.363Z,100187.84
2023-05-16T14:43:30.096Z,100201.28
2023-05-16T14:45:56.802Z,100200.06
2023-05-16T14:48:23.498Z,100198.94
2023-05-16T14:50:50.113Z,100198.97
2023-05-16T14:53:16.707Z,100207.00
2023-05-16T14:55:44.493Z,100208.81
2023-05-16T14:58:11.907Z,100199.22
2023-05-16T15:00:38.558Z,100203.66
2023-05-16T15:03:05.283Z,100209.53
2023-05-16T15:05:32.092Z,100205.00
2023-05-16T15:07:58.772Z,100209.53
2023-05-16T15:10:25.625Z,100209.59
2023-05-16T15:12:53.086Z,100206.00
2023-05-16T15:15:19.778Z,100214.44
2023-05-16T15:17:46.449Z,100218.41
2023-05-16T15:20:13.185Z,100213.47
2023-05-16T15:22:42.976Z,100218.09
2023-05-16T15:25:11.099Z,100217.59
2023-05-16T15:27:37.748Z,100223.75
2023-05-16T15:30:04.677Z,100226.50
2023-05-16T15:32:31.279Z,100231.91
2023-05-16T15:34:58.117Z,100238.97
2023-05-16T15:37:24.734Z,100236.38
2023-05-16T15:39:51.426Z,100249.72
2023-05-16T15:42:20.348Z,100260.47
2023-05-16T15:44:47.331Z,100254.38
2023-05-16T15:47:13.979Z,100258.88
2023-05-16T15:49:40.628Z,100262.28
2023-05-16T15:52:07.570Z,100256.69
2023-05-16T15:54:34.488Z,100255.97
2023-05-16T15:57:01.073Z,100263.22
2023-05-16T15:59:27.705Z,100263.19
2023-05-16T16:01:54.306Z,100257.06
2023-05-16T16:04:23.393Z,100257.75
2023-05-16T16:06:50.350Z,100255.41
2023-05-16T16:09:16.995Z,100255.28
2023-05-16T16:11:43.598Z,100254.72
2023-05-16T16:14:11.257Z,100266.16
2023-05-16T16:16:40.527Z,100269.81
2023-05-16T16:19:07.858Z,100262.13
2023-05-16T16:21:34.570Z,100269.66
2023-05-16T16:24:01.301Z,100266.38
2023-05-16T16:26:28.105Z,100279.09
2023-05-16T16:28:54.666Z,100277.75
2023-05-16T16:31:21.389Z,100283.44
2023-05-16T16:33:49.211Z,100278.34
2023-05-16T16:36:16.861Z,100276.63
2023-05-16T16:38:43.599Z,100278.53
2023-05-16T16:41:10.548Z,100286.34
2023-05-16T16:43:40.091Z,100297.66
2023-05-16T16:46:07.624Z,100299.31
2023-05-16T16:48:35.079Z,100293.72
2023-05-16T16:51:02.456Z,100301.53
2023-05-16T16:53:29.173Z,100300.38
2023-05-16T16:55:55.759Z,100311.59
2023-05-16T16:58:22.406Z,100307.81
2023-05-16T17:00:49.287Z,100311.75
2023-05-16T17:03:16.413Z,100310.38
2023-05-16T17:05:44.665Z,100309.88
2023-05-16T17:08:12.176Z,100308.50
2023-05-16T17:10:39.267Z,100311.47
2023-05-16T17:13:10.260Z,100314.34
2023-05-16T17:15:37.877Z,100320.75
2023-05-16T17:18:08.553Z,100326.25
2023-05-16T17:20:36.012Z,100329.03
2023-05-16T17:23:03.786Z,100333.56
2023-05-16T17:25:30.616Z,100337.16
2023-05-16T17:27:57.475Z,100344.50
2023-05-16T17:30:24.094Z,100337.72
2023-05-16T17:32:50.976Z,100335.34
2023-05-16T17:35:18.294Z,100339.19
2023-05-16T17:37:47.306Z,100342.19
2023-05-16T17:40:17.124Z,100339.81
2023-05-16T17:42:45.199Z,100348.94
2023-05-16T17:45:14.785Z,100349.28
2023-05-16T17:47:42.067Z,100357.34
2023-05-16T17:50:10.415Z,100351.28
2023-05-16T17:52:39.718Z,100347.91
2023-05-16T17:55:08.633Z,100347.03
2023-05-16T17:57:35.460Z,100359.56
2023-05-16T18:00:03.934Z,100355.31
2023-05-16T18:02:30.514Z,100352.88
2023-05-16T18:04:57.258Z,100353.06
2023-05-16T18:07:25.260Z,100357.75
2023-05-16T18:09:52.008Z,100360.59
2023-05-16T18:12:18.587Z,100358.19
2023-05-16T18:14:45.605Z,100366.22
2023-05-16T18:17:13.415Z,100373.53
2023-05-16T18:19:40.380Z,100364.94
2023-05-16T18:22:08.825Z,100376.69
2023-05-16T18:24:35.673Z,100373.31
2023-05-16T18:27:03.039Z,100369.16
2023-05-16T18:29:30.139Z,100370.31
2023-05-16T18:31:57.634Z,100381.13
2023-05-16T18:34:24.370Z,100372.53
2023-05-16T18:36:51.254Z,100379.81
2023-05-16T18:39:19.053Z,100381.72
2023-05-16T18:41:50.884Z,100381.91
2023-05-16T18:46:53.166Z,100378.53
2023-05-16T18:49:19.626Z,100379.47
2023-05-16T18:51:46.013Z,100387.41
2023-05-16T18:54:12.411Z,100393.56
2023-05-16T18:56:38.862Z,100403.31
2023-05-16T18:59:06.575Z,100408.63
2023-05-16T19:01:33.075Z,100425.47
2023-05-16T19:03:59.551Z,100419.53
2023-05-16T19:06:26.662Z,100419.91
2023-05-16T19:08:53.099Z,100423.78
2023-05-16T19:11:19.597Z,100428.72
2023-05-16T19:13:46.225Z,100422.97
2023-05-16T19:16:13.146Z,100415.59
2023-05-16T19:18:39.595Z,100415.16
2023-05-16T19:21:07.765Z,100410.31
2023-05-16T19:23:34.417Z,100418.72
2023-05-16T19:26:00.918Z,100413.81
2023-05-16T19:28:27.353Z,100408.91
2023-05-16T19:30:53.867Z,100416.28
2023-05-16T19:33:21.324Z,100415.72
2023-05-16T19:35:48.513Z,100415.03
2023-05-16T19:38:14.935Z,100415.22
2023-05-16T19:40:41.313Z,100414.53
2023-05-16T19:43:07.749Z,100414.63
2023-05-16T19:45:34.167Z,100417.50
2023-05-16T19:48:00.650Z,100421.09
2023-05-16T19:50:27.322Z,100424.66
2023-05-16T19:52:53.753Z,100421.34
2023-05-16T19:55:20.514Z,100421.44
2023-05-16T19:57:46.916Z,100414.63
2023-05-16T20:00:14.665Z,100414.72
2023-05-16T20:02:42.878Z,100411.41
2023-05-16T20:05:09.764Z,100410.75
2023-05-16T20:07:36.398Z,100420.66
2023-05-16T20:10:02.815Z,100416.38
2023-05-16T20:12:29.374Z,100419.22
2023-05-16T20:14:55.777Z,100418.53
2023-05-16T20:17:22.219Z,100427.50
2023-05-16T20:19:48.650Z,100417.28
2023-05-16T20:22:15.413Z,100417.53
2023-05-16T20:24:41.816Z,100415.16
2023-05-16T20:27:08.248Z,100416.47
2023-05-16T20:29:35.002Z,100422.94
2023-05-16T20:32:03.842Z,100422.44
2023-05-16T20:34:31.750Z,100421.09
2023-05-16T20:36:58.506Z,100420.50
2023-05-16T20:39:28.783Z,100416.31
2023-05-16T20:41:55.238Z,100420.94
2023-05-16T20:44:21.785Z,100422.88
2023-05-16T20:46:48.272Z,100423.16
2023-05-16T20:49:14.712Z,100422.50
2023-05-16T20:51:41.102Z,100417.44
2023-05-16T20:54:07.712Z,100415.06
2023-05-16T20:56:34.144Z,100424.00
2023-05-16T20:59:00.634Z,100424.19
2023-05-16T21:01:27.073Z,100431.34
2023-05-16T21:03:53.559Z,100425.31
2023-05-16T21:06:20.015Z,100432.34
2023-05-16T21:08:46.414Z,100435.06
2023-05-16T21:11:12.821Z,100435.06
2023-05-16T21:13:39.257Z,100441.22
2023-05-16T21:16:05.990Z,100436.78
2023-05-16T21:18:32.433Z,100440.28
2023-05-16T21:20:58.995Z,100444.63
2023-05-16T21:23:25.502Z,100436.69
2023-05-16T21:25:51.937Z,100441.03
2023-05-16T21:28:18.342Z,100432.28
2023-05-16T21:30:44.752Z,100443.59
2023-05-16T21:33:11.445Z,100444.38
2023-05-16T21:35:37.903Z,100446.00
2023-05-16T21:38:04.309Z,100449.41
2023-05-16T21:40:30.864Z,100453.75
2023-05-16T21:42:57.253Z,100451.88
2023-05-16T21:45:23.649Z,100445.66
2023-05-16T21:47:50.141Z,100457.94
2023-05-16T21:50:18.120Z,100452.66
2023-05-16T21:52:44.569Z,100453.41
2023-05-16T21:55:11.046Z,100459.47
2023-05-16T21:57:37.444Z,100454.09
2023-05-16T22:00:06.714Z,100454.88
2023-05-16T22:02:33.601Z,100449.50
2023-05-16T22:05:00.233Z,100448.47
2023-05-16T22:07:29.712Z,100447.44
2023-05-16T22:09:56.506Z,100453.50
2023-05-16T22:12:23.931Z,100444.66
2023-05-16T22:14:51.079Z,100456.91
2023-05-16T22:17:19.412Z,100450.69
2023-05-16T22:19:46.672Z,100447.19
2023-05-16T22:22:13.292Z,100450.69
2023-05-16T22:24:39.797Z,100449.00
2023-05-16T22:27:06.254Z,100443.78
2023-05-16T22:29:37.872Z,100440.28
2023-05-16T22:32:08.394Z,100440.38
2023-05-16T22:34:35.716Z,100446.50
2023-05-16T22:37:02.123Z,100445.69
2023-05-16T22:39:28.525Z,100445.75
2023-05-16T22:41:55.188Z,100439.69
2023-05-16T22:44:21.731Z,100437.13
2023-05-16T22:46:48.268Z,100438.16
2023-05-16T22:49:14.860Z,100436.63
2023-05-16T22:51:41.294Z,100434.16
2023-05-16T22:54:07.805Z,100435.44
2023-05-16T22:56:34.308Z,100440.13
2023-05-16T22:59:01.016Z,100441.31
2023-05-16T23:01:27.509Z,100443.34
2023-05-16T23:03:53.931Z,100441.81
2023-05-16T23:06:20.485Z,100447.41
2023-05-16T23:08:46.873Z,100447.66
2023-05-16T23:11:13.379Z,100443.50
2023-05-16T23:13:39.762Z,100440.13
2023-05-16T23:16:06.401Z,100451.81
2023-05-16T23:18:33.041Z,100452.81
2023-05-16T23:20:59.565Z,100448.63
2023-05-16T23:23:26.018Z,100454.00
2023-05-16T23:25:52.439Z,100454.25
2023-05-16T23:28:19.012Z,100450.84
2023-05-16T23:30:45.601Z,100456.28
2023-05-16T23:33:14.146Z,100453.78
2023-05-16T23:35:40.860Z,100463.59
2023-05-16T23:38:07.379Z,100456.66
2023-05-16T23:40:33.776Z,100462.00
2023-05-16T23:43:00.189Z,100465.56
2023-05-16T23:45:27.874Z,100456.88
2023-05-16T23:47:54.515Z,100457.97
2023-05-16T23:50:22.033Z,100455.41
2023-05-16T23:52:48.476Z,100449.38
2023-05-16T23:55:15.803Z,100455.66
2023-05-16T23:57:42.373Z,100460.06
